sensor_id;sensor_type;location;lat;lon;timestamp;pressure;altitude;pressure_sealevel;temperature;humidity
9695;BME280;4690;52.422;13.486;2023-08-24T00:12:51;101547.84;;;20.35;71.09
9695;BME280;4690;52.422;13.486;2023-08-24T00:15:17;101538.13;;;20.33;71.10
9695;BME280;4690;52.422;13.486;2023-08-24T00:17:42;101533.94;;;20.30;70.85
9695;BME280;4690;52.422;13.486;2023-08-24T00:20:08;101541.72;;;20.33;70.56
9695;BME280;4690;52.422;13.486;2023-08-24T00:22:38;101544.22;;;20.35;70.44
9695;BME280;4690;52.422;13.486;2023-08-24T00:25:08;101535.03;;;20.34;70.61
9695;BME280;4690;52.422;13.486;2023-08-24T00:27:35;101538.63;;;20.30;70.88
9695;BME280;4690;52.422;13.486;2023-08-24T00:30:06;101538.03;;;20.18;70.61
9695;BME280;4690;52.422;13.486;2023-08-24T00:32:33;101533.00;;;20.09;71.16
9695;BME280;4690;52.422;13.486;2023-08-24T00:35:05;101534.88;;;19.99;71.43
9695;BME280;4690;52.422;13.486;2023-08-24T00:37:36;101532.38;;;19.97;71.58
9695;BME280;4690;52.422;13.486;2023-08-24T00:40:04;101525.44;;;20.00;71.84
9695;BME280;4690;52.422;13.486;2023-08-24T00:42:45;101540.44;;;19.99;71.76
9695;BME280;4690;52.422;13.486;2023-08-24T00:45:14;101534.63;;;20.00;71.77
9695;BME280;4690;52.422;13.486;2023-08-24T00:47:43;101533.78;;;20.00;71.89
9695;BME280;4690;52.422;13.486;2023-08-24T00:50:10;101533.78;;;20.00;71.94
9695;BME280;4690;52.422;13.486;2023-08-24T00:52:40;101539.88;;;19.91;72.41
9695;BME280;4690;52.422;13.486;2023-08-24T00:55:08;101536.25;;;19.96;72.43
9695;BME280;4690;52.422;13.486;2023-08-24T00:57:37;101531.84;;;20.00;71.93
9695;BME280;4690;52.422;13.486;2023-08-24T01:00:06;101541.84;;;20.01;71.66
9695;BME280;4690;52.422;13.486;2023-08-24T01:02:34;101538.78;;;19.98;71.64
9695;BME280;4690;52.422;13.486;2023-08-24T01:05:00;101535.69;;;19.89;71.76
9695;BME280;4690;52.422;13.486;2023-08-24T01:07:26;101532.31;;;19.87;71.40
9695;BME280;4690;52.422;13.486;2023-08-24T01:09:53;101533.13;;;19.77;72.01
9695;BME280;4690;52.422;13.486;2023-08-24T01:12:20;101543.97;;;19.79;71.94
9695;BME280;4690;52.422;13.486;2023-08-24T01:18:06;101528.38;;;19.78;72.33
9695;BME280;4690;52.422;13.486;2023-08-24T01:20:35;101534.22;;;19.76;72.56
9695;BME280;4690;52.422;13.486;2023-08-24T01:25:59;101532.00;;;19.78;72.52
9695;BME280;4690;52.422;13.486;2023-08-24T01:28:25;101534.78;;;19.78;72.44
9695;BME280;4690;52.422;13.486;2023-08-24T01:30:51;101534.50;;;19.75;72.35
9695;BME280;4690;52.422;13.486;2023-08-24T01:33:18;101535.88;;;19.72;72.32
9695;BME280;4690;52.422;13.486;2023-08-24T01:35:43;101533.13;;;19.77;72.01
9695;BME280;4690;52.422;13.486;2023-08-24T01:38:09;101532.00;;;19.78;72.31
9695;BME280;4690;52.422;13.486;2023-08-24T01:41:03;101535.56;;;19.74;72.36
9695;BME280;4690;52.422;13.486;2023-08-24T01:43:35;101540.63;;;19.77;72.29
9695;BME280;4690;52.422;13.486;2023-08-24T01:46:07;101534.47;;;19.69;72.42
9695;BME280;4690;52.422;13.486;2023-08-24T01:48:34;101532.72;;;19.63;72.54
9695;BME280;4690;52.422;13.486;2023-08-24T01:51:02;101537.44;;;19.63;72.56
9695;BME280;4690;52.422;13.486;2023-08-24T01:53:31;101529.06;;;19.58;72.98
9695;BME280;4690;52.422;13.486;2023-08-24T01:55:57;101527.97;;;19.59;73.10
9695;BME280;4690;52.422;13.486;2023-08-24T01:58:23;101520.16;;;19.56;73.61
9695;BME280;4690;52.422;13.486;2023-08-24T02:00:49;101521.81;;;19.57;73.58
9695;BME280;4690;52.422;13.486;2023-08-24T02:03:15;101511.81;;;19.56;73.43
9695;BME280;4690;52.422;13.486;2023-08-24T02:05:40;101514.56;;;19.51;73.43
9695;BME280;4690;52.422;13.486;2023-08-24T02:08:06;101510.09;;;19.49;73.56
9695;BME280;4690;52.422;13.486;2023-08-24T02:10:32;101511.22;;;19.48;73.76
9695;BME280;4690;52.422;13.486;2023-08-24T02:12:57;101526.75;;;19.44;73.76
9695;BME280;4690;52.422;13.486;2023-08-24T02:15:23;101519.47;;;19.38;73.17
9695;BME280;4690;52.422;13.486;2023-08-24T02:17:49;101520.06;;;19.40;73.50
9695;BME280;4690;52.422;13.486;2023-08-24T02:20:15;101526.44;;;19.41;73.39
9695;BME280;4690;52.422;13.486;2023-08-24T02:22:41;101526.16;;;19.42;73.52
9695;BME280;4690;52.422;13.486;2023-08-24T02:25:09;101522.84;;;19.40;74.00
9695;BME280;4690;52.422;13.486;2023-08-24T02:27:35;101523.69;;;19.41;73.98
9695;BME280;4690;52.422;13.486;2023-08-24T02:30:01;101520.06;;;19.40;73.56
9695;BME280;4690;52.422;13.486;2023-08-24T02:32:27;101528.94;;;19.37;73.83
9695;BME280;4690;52.422;13.486;2023-08-24T02:34:52;101533.03;;;19.30;74.57
9695;BME280;4690;52.422;13.486;2023-08-24T02:37:18;101532.22;;;19.29;74.64
9695;BME280;4690;52.422;13.486;2023-08-24T02:39:44;101533.56;;;19.26;74.97
9695;BME280;4690;52.422;13.486;2023-08-24T02:42:10;101523.28;;;19.27;75.34
9695;BME280;4690;52.422;13.486;2023-08-24T02:44:35;101516.38;;;19.30;75.09
9695;BME280;4690;52.422;13.486;2023-08-24T02:47:01;101514.47;;;19.35;74.90
9695;BME280;4690;52.422;13.486;2023-08-24T02:49:27;101522.81;;;19.35;75.13
9695;BME280;4690;52.422;13.486;2023-08-24T02:51:53;101511.41;;;19.37;74.60
9695;BME280;4690;52.422;13.486;2023-08-24T02:54:19;101518.31;;;19.29;74.65
9695;BME280;4690;52.422;13.486;2023-08-24T02:56:45;101511.88;;;19.29;75.10
9695;BME280;4690;52.422;13.486;2023-08-24T02:59:11;101507.75;;;19.31;74.74
9695;BME280;4690;52.422;13.486;2023-08-24T03:01:36;101519.19;;;19.35;74.63
9695;BME280;4690;52.422;13.486;2023-08-24T03:04:04;101514.47;;;19.35;74.65
9695;BME280;4690;52.422;13.486;2023-08-24T03:06:31;101512.75;;;19.34;74.73
9695;BME280;4690;52.422;13.486;2023-08-24T03:08:57;101521.09;;;19.29;74.76
9695;BME280;4690;52.422;13.486;2023-08-24T03:11:22;101526.13;;;19.32;74.66
9695;BME280;4690;52.422;13.486;2023-08-24T03:13:48;101523.34;;;19.32;74.61
9695;BME280;4690;52.422;13.486;2023-08-24T03:16:14;101518.31;;;19.29;75.02
9695;BME280;4690;52.422;13.486;2023-08-24T03:18:40;101523.88;;;19.29;75.13
9695;BME280;4690;52.422;13.486;2023-08-24T03:21:06;101517.19;;;19.30;74.89
9695;BME280;4690;52.422;13.486;2023-08-24T03:23:32;101515.28;;;19.36;74.71
9695;BME280;4690;52.422;13.486;2023-08-24T03:25:58;101510.28;;;19.33;74.83
9695;BME280;4690;52.422;13.486;2023-08-24T03:28:23;101521.94;;;19.30;74.83
9695;BME280;4690;52.422;13.486;2023-08-24T03:30:52;101518.88;;;19.31;74.76
9695;BME280;4690;52.422;13.486;2023-08-24T03:33:19;101508.06;;;19.35;75.08
9695;BME280;4690;52.422;13.486;2023-08-24T03:35:45;101517.81;;;19.37;74.69
9695;BME280;4690;52.422;13.486;2023-08-24T03:38:11;101511.72;;;19.40;75.10
9695;BME280;4690;52.422;13.486;2023-08-24T03:40:37;101513.63;;;19.40;74.71
9695;BME280;4690;52.422;13.486;2023-08-24T03:43:03;101509.19;;;19.39;75.06
9695;BME280;4690;52.422;13.486;2023-08-24T03:45:29;101500.91;;;19.44;74.64
9695;BME280;4690;52.422;13.486;2023-08-24T03:47:55;101500.09;;;19.48;74.34
9695;BME280;4690;52.422;13.486;2023-08-24T03:50:21;101495.06;;;19.45;74.28
9695;BME280;4690;52.422;13.486;2023-08-24T03:52:51;101501.72;;;19.44;74.07
9695;BME280;4690;52.422;13.486;2023-08-24T03:55:17;101503.41;;;19.45;74.35
9695;BME280;4690;52.422;13.486;2023-08-24T03:57:43;101491.22;;;19.52;74.17
9695;BME280;4690;52.422;13.486;2023-08-24T04:00:10;101487.88;;;19.49;73.51
9695;BME280;4690;52.422;13.486;2023-08-24T04:02:38;101486.75;;;19.51;74.02
9695;BME280;4690;52.422;13.486;2023-08-24T04:05:04;101485.97;;;19.55;73.91
9695;BME280;4690;52.422;13.486;2023-08-24T04:07:30;101491.22;;;19.57;73.75
9695;BME280;4690;52.422;13.486;2023-08-24T04:09:57;101488.44;;;19.57;73.60
9695;BME280;4690;52.422;13.486;2023-08-24T04:12:22;101494.88;;;19.57;73.13
9695;BME280;4690;52.422;13.486;2023-08-24T04:14:48;101493.47;;;19.55;73.49
9695;BME280;4690;52.422;13.486;2023-08-24T04:17:14;101496.25;;;19.55;73.42
9695;BME280;4690;52.422;13.486;2023-08-24T04:19:40;101493.19;;;19.56;73.53
9695;BME280;4690;52.422;13.486;2023-08-24T04:22:06;101495.13;;;19.56;73.67
9695;BME280;4690;52.422;13.486;2023-08-24T04:24:31;101494.00;;;19.57;73.44
9695;BME280;4690;52.422;13.486;2023-08-24T04:26:57;101503.75;;;19.54;73.47
9695;BME280;4690;52.422;13.486;2023-08-24T04:29:23;101498.50;;;19.58;73.78
9695;BME280;4690;52.422;13.486;2023-08-24T04:31:49;101492.09;;;19.57;73.62
9695;BME280;4690;52.422;13.486;2023-08-24T04:34:14;101491.22;;;19.57;73.63
9695;BME280;4690;52.422;13.486;2023-08-24T04:36:40;101493.78;;;19.63;73.68
9695;BME280;4690;52.422;13.486;2023-08-24T04:39:06;101486.88;;;19.66;73.15
9695;BME280;4690;52.422;13.486;2023-08-24T04:41:31;101494.41;;;19.70;72.78
9695;BME280;4690;52.422;13.486;2023-08-24T04:43:57;101494.41;;;19.65;72.89
9695;BME280;4690;52.422;13.486;2023-08-24T04:46:23;101501.03;;;19.64;73.03
9695;BME280;4690;52.422;13.486;2023-08-24T04:48:49;101497.19;;;19.65;72.41
9695;BME280;4690;52.422;13.486;2023-08-24T04:51:15;101499.06;;;19.60;72.49
9695;BME280;4690;52.422;13.486;2023-08-24T04:53:40;101496.53;;;19.58;72.96
9695;BME280;4690;52.422;13.486;2023-08-24T04:56:06;101498.53;;;19.63;73.16
9695;BME280;4690;52.422;13.486;2023-08-24T04:58:33;101499.69;;;19.67;73.20
9695;BME280;4690;52.422;13.486;2023-08-24T05:00:59;101503.91;;;19.75;72.84
9695;BME280;4690;52.422;13.486;2023-08-24T05:03:25;101504.47;;;19.82;73.08
9695;BME280;4690;52.422;13.486;2023-08-24T05:05:51;101508.13;;;19.87;72.81
9695;BME280;4690;52.422;13.486;2023-08-24T05:08:17;101512.63;;;19.93;72.76
9695;BME280;4690;52.422;13.486;2023-08-24T05:10:44;101515.41;;;19.99;72.67
9695;BME280;4690;52.422;13.486;2023-08-24T05:13:09;101511.00;;;20.03;72.43
9695;BME280;4690;52.422;13.486;2023-08-24T05:15:35;101511.00;;;20.08;72.30
9695;BME280;4690;52.422;13.486;2023-08-24T05:18:01;101512.97;;;20.12;71.91
9695;BME280;4690;52.422;13.486;2023-08-24T05:20:27;101507.72;;;20.16;71.74
9695;BME280;4690;52.422;13.486;2023-08-24T05:22:53;101512.41;;;20.15;71.24
9695;BME280;4690;52.422;13.486;2023-08-24T05:25:22;101511.00;;;20.13;71.31
9695;BME280;4690;52.422;13.486;2023-08-24T05:27:48;101514.13;;;20.17;71.63
9695;BME280;4690;52.422;13.486;2023-08-24T05:30:14;101521.09;;;20.19;71.04
9695;BME280;4690;52.422;13.486;2023-08-24T05:32:40;101520.53;;;20.22;71.30
9695;BME280;4690;52.422;13.486;2023-08-24T05:35:07;101509.66;;;20.21;70.63
9695;BME280;4690;52.422;13.486;2023-08-24T05:37:34;101513.81;;;20.18;70.58
9695;BME280;4690;52.422;13.486;2023-08-24T05:40:01;101511.63;;;20.25;70.33
9695;BME280;4690;52.422;13.486;2023-08-24T05:42:27;101515.56;;;20.34;70.05
9695;BME280;4690;52.422;13.486;2023-08-24T05:44:53;101504.16;;;20.36;70.13
9695;BME280;4690;52.422;13.486;2023-08-24T05:47:19;101521.13;;;20.34;70.27
9695;BME280;4690;52.422;13.486;2023-08-24T05:49:45;101509.97;;;20.34;70.37
9695;BME280;4690;52.422;13.486;2023-08-24T05:52:11;101514.72;;;20.34;70.57
9695;BME280;4690;52.422;13.486;2023-08-24T05:54:37;101512.81;;;20.45;70.60
9695;BME280;4690;52.422;13.486;2023-08-24T05:57:04;101517.59;;;20.59;70.33
9695;BME280;4690;52.422;13.486;2023-08-24T05:59:32;101509.53;;;20.63;70.06
9695;BME280;4690;52.422;13.486;2023-08-24T06:01:58;101509.81;;;20.72;69.51
9695;BME280;4690;52.422;13.486;2023-08-24T06:04:24;101511.50;;;20.88;69.50
9695;BME280;4690;52.422;13.486;2023-08-24T06:06:50;101503.44;;;21.07;68.55
9695;BME280;4690;52.422;13.486;2023-08-24T06:09:16;101511.78;;;21.22;67.83
9695;BME280;4690;52.422;13.486;2023-08-24T06:11:41;101500.34;;;21.34;67.56
9695;BME280;4690;52.422;13.486;2023-08-24T06:14:07;101510.44;;;21.40;66.52
9695;BME280;4690;52.422;13.486;2023-08-24T06:16:33;101506.78;;;21.30;66.05
9695;BME280;4690;52.422;13.486;2023-08-24T06:18:59;101509.56;;;21.50;66.40
9695;BME280;4690;52.422;13.486;2023-08-24T06:21:24;101507.59;;;21.66;65.99
9695;BME280;4690;52.422;13.486;2023-08-24T06:23:50;101505.84;;;21.85;65.16
9695;BME280;4690;52.422;13.486;2023-08-24T06:26:17;101507.44;;;22.07;64.65
9695;BME280;4690;52.422;13.486;2023-08-24T06:28:43;101508.25;;;22.18;64.44
9695;BME280;4690;52.422;13.486;2023-08-24T06:31:09;101509.88;;;22.29;62.78
9695;BME280;4690;52.422;13.486;2023-08-24T06:33:36;101503.97;;;22.35;63.33
9695;BME280;4690;52.422;13.486;2023-08-24T06:36:03;101500.19;;;22.60;62.74
9695;BME280;4690;52.422;13.486;2023-08-24T06:38:32;101501.75;;;22.77;62.56
9695;BME280;4690;52.422;13.486;2023-08-24T06:40:58;101499.38;;;22.94;61.54
9695;BME280;4690;52.422;13.486;2023-08-24T06:43:26;101505.47;;;23.07;61.17
9695;BME280;4690;52.422;13.486;2023-08-24T06:45:52;101506.22;;;23.17;61.08
9695;BME280;4690;52.422;13.486;2023-08-24T06:48:17;101501.50;;;23.13;60.33
9695;BME280;4690;52.422;13.486;2023-08-24T06:50:44;101503.72;;;23.16;59.59
9695;BME280;4690;52.422;13.486;2023-08-24T06:53:10;101512.19;;;23.40;59.39
9695;BME280;4690;52.422;13.486;2023-08-24T06:55:35;101508.38;;;23.55;59.62
9695;BME280;4690;52.422;13.486;2023-08-24T06:58:03;101511.00;;;23.75;59.09
9695;BME280;4690;52.422;13.486;2023-08-24T07:00:31;101520.94;;;23.86;57.98
9695;BME280;4690;52.422;13.486;2023-08-24T07:02:57;101522.84;;;23.91;56.87
9695;BME280;4690;52.422;13.486;2023-08-24T07:05:23;101511.50;;;24.01;56.20
9695;BME280;4690;52.422;13.486;2023-08-24T07:07:52;101518.19;;;24.05;55.66
9695;BME280;4690;52.422;13.486;2023-08-24T07:10:19;101517.72;;;23.98;55.80
9695;BME280;4690;52.422;13.486;2023-08-24T07:12:46;101522.47;;;24.22;56.01
9695;BME280;4690;52.422;13.486;2023-08-24T07:15:12;101527.69;;;24.28;54.56
9695;BME280;4690;52.422;13.486;2023-08-24T07:17:38;101520.84;;;24.15;55.23
9695;BME280;4690;52.422;13.486;2023-08-24T07:20:05;101522.94;;;24.29;55.12
9695;BME280;4690;52.422;13.486;2023-08-24T07:22:32;101527.69;;;24.28;55.17
9695;BME280;4690;52.422;13.486;2023-08-24T07:24:58;101524.78;;;24.57;56.10
9695;BME280;4690;52.422;13.486;2023-08-24T07:27:24;101525.03;;;24.80;54.32
9695;BME280;4690;52.422;13.486;2023-08-24T07:29:49;101508.06;;;24.90;53.02
9695;BME280;4690;52.422;13.486;2023-08-24T07:32:15;101508.31;;;25.08;53.19
9695;BME280;4690;52.422;13.486;2023-08-24T07:34:41;101511.75;;;25.23;52.46
9695;BME280;4690;52.422;13.486;2023-08-24T07:37:07;101509.25;;;25.36;52.25
9695;BME280;4690;52.422;13.486;2023-08-24T07:39:33;101509.09;;;25.46;52.28
9695;BME280;4690;52.422;13.486;2023-08-24T07:41:59;101507.75;;;25.57;52.27
9695;BME280;4690;52.422;13.486;2023-08-24T07:44:25;101502.66;;;25.73;51.89
9695;BME280;4690;52.422;13.486;2023-08-24T07:46:50;101510.44;;;25.76;51.00
9695;BME280;4690;52.422;13.486;2023-08-24T07:49:16;101512.56;;;25.98;50.63
9695;BME280;4690;52.422;13.486;2023-08-24T07:51:42;101511.94;;;26.01;48.91
9695;BME280;4690;52.422;13.486;2023-08-24T07:54:13;101515.19;;;26.08;49.39
9695;BME280;4690;52.422;13.486;2023-08-24T07:56:38;101514.66;;;26.20;48.88
9695;BME280;4690;52.422;13.486;2023-08-24T07:59:05;101514.53;;;26.39;50.19
9695;BME280;4690;52.422;13.486;2023-08-24T08:01:31;101506.28;;;26.56;50.16
9695;BME280;4690;52.422;13.486;2023-08-24T08:03:57;101506.06;;;26.67;49.31
9695;BME280;4690;52.422;13.486;2023-08-24T08:06:23;101508.78;;;26.80;48.50
9695;BME280;4690;52.422;13.486;2023-08-24T08:08:50;101508.66;;;26.86;47.34
9695;BME280;4690;52.422;13.486;2023-08-24T08:11:17;101501.34;;;26.98;47.55
9695;BME280;4690;52.422;13.486;2023-08-24T08:13:43;101503.38;;;27.07;46.86
9695;BME280;4690;52.422;13.486;2023-08-24T08:16:09;101506.38;;;26.88;44.88
9695;BME280;4690;52.422;13.486;2023-08-24T08:18:36;101514.03;;;26.73;46.66
9695;BME280;4690;52.422;13.486;2023-08-24T08:21:17;101518.38;;;26.79;46.57
9695;BME280;4690;52.422;13.486;2023-08-24T08:23:44;101501.06;;;26.86;46.87
9695;BME280;4690;52.422;13.486;2023-08-24T08:26:16;101506.56;;;26.91;47.11
9695;BME280;4690;52.422;13.486;2023-08-24T08:28:42;101510.47;;;26.81;46.11
9695;BME280;4690;52.422;13.486;2023-08-24T08:31:08;101496.06;;;26.83;46.37
9695;BME280;4690;52.422;13.486;2023-08-24T08:33:48;101502.22;;;26.85;47.23
9695;BME280;4690;52.422;13.486;2023-08-24T08:36:17;101486.69;;;26.88;46.67
9695;BME280;4690;52.422;13.486;2023-08-24T08:38:43;101490.84;;;26.90;46.89
9695;BME280;4690;52.422;13.486;2023-08-24T08:41:09;101481.88;;;26.88;46.08
9695;BME280;4690;52.422;13.486;2023-08-24T08:43:38;101483.88;;;26.88;47.30
9695;BME280;4690;52.422;13.486;2023-08-24T08:46:04;101489.97;;;26.81;46.30
9695;BME280;4690;52.422;13.486;2023-08-24T08:48:32;101476.84;;;26.76;46.54
9695;BME280;4690;52.422;13.486;2023-08-24T08:50:58;101484.88;;;26.69;46.23
9695;BME280;4690;52.422;13.486;2023-08-24T08:53:25;101487.53;;;26.52;45.59
9695;BME280;4690;52.422;13.486;2023-08-24T08:55:55;101484.81;;;26.47;46.90
9695;BME280;4690;52.422;13.486;2023-08-24T08:58:24;101490.75;;;26.45;47.83
9695;BME280;4690;52.422;13.486;2023-08-24T09:00:52;101484.31;;;26.45;46.88
9695;BME280;4690;52.422;13.486;2023-08-24T09:03:18;101480.03;;;26.47;45.81
9695;BME280;4690;52.422;13.486;2023-08-24T09:05:44;101480.53;;;26.49;46.76
9695;BME280;4690;52.422;13.486;2023-08-24T09:08:16;101473.81;;;26.50;46.96
9695;BME280;4690;52.422;13.486;2023-08-24T09:10:42;101466.00;;;26.47;46.42
9695;BME280;4690;52.422;13.486;2023-08-24T09:13:07;101462.84;;;26.49;46.43
9695;BME280;4690;52.422;13.486;2023-08-24T09:15:37;101465.66;;;26.49;46.63
9695;BME280;4690;52.422;13.486;2023-08-24T09:18:03;101461.41;;;26.37;45.96
9695;BME280;4690;52.422;13.486;2023-08-24T09:20:29;101453.50;;;26.39;45.49
9695;BME280;4690;52.422;13.486;2023-08-24T09:22:55;101453.44;;;26.31;45.78
9695;BME280;4690;52.422;13.486;2023-08-24T09:25:24;101446.09;;;26.44;46.05
9695;BME280;4690;52.422;13.486;2023-08-24T09:27:58;101452.25;;;26.46;46.15
9695;BME280;4690;52.422;13.486;2023-08-24T09:30:32;101440.47;;;26.57;46.14
9695;BME280;4690;52.422;13.486;2023-08-24T09:33:10;101438.47;;;26.58;45.35
9695;BME280;4690;52.422;13.486;2023-08-24T09:35:37;101434.84;;;26.57;45.13
9695;BME280;4690;52.422;13.486;2023-08-24T09:38:19;101442.19;;;26.31;45.30
9695;BME280;4690;52.422;13.486;2023-08-24T09:40:50;101439.28;;;26.36;45.59
9695;BME280;4690;52.422;13.486;2023-08-24T09:43:20;101431.41;;;26.47;46.13
9695;BME280;4690;52.422;13.486;2023-08-24T09:45:50;101438.63;;;26.53;45.62
9695;BME280;4690;52.422;13.486;2023-08-24T09:48:17;101435.88;;;26.62;46.27
9695;BME280;4690;52.422;13.486;2023-08-24T09:50:45;101424.22;;;26.77;49.06
9695;BME280;4690;52.422;13.486;2023-08-24T09:53:20;101425.81;;;26.92;46.19
9695;BME280;4690;52.422;13.486;2023-08-24T09:56:00;101421.84;;;27.15;46.44
9695;BME280;4690;52.422;13.486;2023-08-24T09:58:27;101421.13;;;27.32;44.77
9695;BME280;4690;52.422;13.486;2023-08-24T10:00:54;101419.69;;;27.43;45.00
9695;BME280;4690;52.422;13.486;2023-08-24T10:03:24;101404.06;;;27.77;46.34
9695;BME280;4690;52.422;13.486;2023-08-24T10:05:56;101412.59;;;28.03;45.01
9695;BME280;4690;52.422;13.486;2023-08-24T10:08:35;101409.97;;;28.24;45.16
9695;BME280;4690;52.422;13.486;2023-08-24T10:11:01;101404.00;;;28.52;43.61
9695;BME280;4690;52.422;13.486;2023-08-24T10:16:03;101400.47;;;28.90;43.72
9695;BME280;4690;52.422;13.486;2023-08-24T10:18:31;101403.97;;;28.87;40.55
9695;BME280;4690;52.422;13.486;2023-08-24T10:20:58;101401.31;;;28.81;38.27
9695;BME280;4690;52.422;13.486;2023-08-24T10:23:29;101407.94;;;28.86;40.68
9695;BME280;4690;52.422;13.486;2023-08-24T10:25:56;101406.09;;;28.98;40.86
9695;BME280;4690;52.422;13.486;2023-08-24T10:28:24;101403.25;;;29.16;42.12
9695;BME280;4690;52.422;13.486;2023-08-24T10:30:58;101402.28;;;29.03;39.27
9695;BME280;4690;52.422;13.486;2023-08-24T10:33:25;101397.78;;;29.11;40.94
9695;BME280;4690;52.422;13.486;2023-08-24T10:35:52;101399.22;;;29.25;40.65
9695;BME280;4690;52.422;13.486;2023-08-24T10:38:29;101399.50;;;29.41;41.37
9695;BME280;4690;52.422;13.486;2023-08-24T10:41:03;101391.28;;;29.57;42.19
9695;BME280;4690;52.422;13.486;2023-08-24T10:43:37;101397.91;;;29.61;38.91
9695;BME280;4690;52.422;13.486;2023-08-24T10:46:04;101402.59;;;29.57;38.03
9695;BME280;4690;52.422;13.486;2023-08-24T10:51:16;101391.88;;;29.33;38.44
9695;BME280;4690;52.422;13.486;2023-08-24T10:53:58;101401.78;;;29.48;39.02
9695;BME280;4690;52.422;13.486;2023-08-24T10:56:38;101395.25;;;29.65;40.97
9695;BME280;4690;52.422;13.486;2023-08-24T10:59:19;101381.16;;;29.86;42.08
9695;BME280;4690;52.422;13.486;2023-08-24T11:04:17;101377.53;;;30.06;40.26
9695;BME280;4690;52.422;13.486;2023-08-24T11:06:57;101385.34;;;30.30;39.52
9695;BME280;4690;52.422;13.486;2023-08-24T11:09:49;101374.59;;;30.24;36.96
9695;BME280;4690;52.422;13.486;2023-08-24T11:12:15;101375.66;;;29.89;37.32
9695;BME280;4690;52.422;13.486;2023-08-24T11:14:52;101366.97;;;29.94;38.87
9695;BME280;4690;52.422;13.486;2023-08-24T11:17:29;101352.50;;;30.17;38.68
9695;BME280;4690;52.422;13.486;2023-08-24T11:20:00;101346.84;;;30.38;37.94
9695;BME280;4690;52.422;13.486;2023-08-24T11:22:26;101338.84;;;30.40;38.44
9695;BME280;4690;52.422;13.486;2023-08-24T11:24:52;101341.50;;;30.24;38.37
9695;BME280;4690;52.422;13.486;2023-08-24T11:27:21;101334.56;;;30.34;38.48
9695;BME280;4690;52.422;13.486;2023-08-24T11:29:46;101339.28;;;29.88;37.93
9695;BME280;4690;52.422;13.486;2023-08-24T11:32:12;101342.22;;;29.91;39.87
9695;BME280;4690;52.422;13.486;2023-08-24T11:34:39;101336.72;;;30.16;40.12
9695;BME280;4690;52.422;13.486;2023-08-24T11:37:05;101329.88;;;30.38;40.41
9695;BME280;4690;52.422;13.486;2023-08-24T11:39:30;101328.19;;;30.58;40.48
9695;BME280;4690;52.422;13.486;2023-08-24T11:42:05;101322.66;;;30.74;39.49
9695;BME280;4690;52.422;13.486;2023-08-24T11:44:49;101316.50;;;30.59;37.54
9695;BME280;4690;52.422;13.486;2023-08-24T11:47:16;101317.00;;;30.74;39.13
9695;BME280;4690;52.422;13.486;2023-08-24T11:49:42;101308.34;;;30.91;38.62
9695;BME280;4690;52.422;13.486;2023-08-24T11:52:09;101301.03;;;31.02;38.75
9695;BME280;4690;52.422;13.486;2023-08-24T11:54:36;101294.44;;;31.11;38.21
9695;BME280;4690;52.422;13.486;2023-08-24T11:57:08;101289.84;;;31.06;36.81
9695;BME280;4690;52.422;13.486;2023-08-24T11:59:38;101282.41;;;31.01;37.34
9695;BME280;4690;52.422;13.486;2023-08-24T12:02:05;101287.59;;;30.99;37.48
9695;BME280;4690;52.422;13.486;2023-08-24T12:04:41;101290.44;;;30.87;37.09
9695;BME280;4690;52.422;13.486;2023-08-24T12:07:11;101286.84;;;30.78;36.34
9695;BME280;4690;52.422;13.486;2023-08-24T12:09:39;101293.66;;;30.65;36.57
9695;BME280;4690;52.422;13.486;2023-08-24T12:12:05;101293.38;;;30.57;37.23
9695;BME280;4690;52.422;13.486;2023-08-24T12:14:45;101296.97;;;30.67;37.50
9695;BME280;4690;52.422;13.486;2023-08-24T12:17:12;101297.63;;;30.85;37.58
9695;BME280;4690;52.422;13.486;2023-08-24T12:19:53;101290.19;;;31.04;36.95
9695;BME280;4690;52.422;13.486;2023-08-24T12:22:21;101289.72;;;31.02;36.32
9695;BME280;4690;52.422;13.486;2023-08-24T12:24:48;101282.16;;;30.94;35.32
9695;BME280;4690;52.422;13.486;2023-08-24T12:27:25;101287.41;;;30.71;36.59
9695;BME280;4690;52.422;13.486;2023-08-24T12:29:51;101271.03;;;30.65;36.88
9695;BME280;4690;52.422;13.486;2023-08-24T12:32:19;101273.84;;;30.52;36.49
9695;BME280;4690;52.422;13.486;2023-08-24T12:34:47;101265.38;;;30.77;37.38
9695;BME280;4690;52.422;13.486;2023-08-24T12:37:12;101262.59;;;31.01;37.81
9695;BME280;4690;52.422;13.486;2023-08-24T12:39:39;101256.00;;;31.10;37.57
9695;BME280;4690;52.422;13.486;2023-08-24T12:42:05;101257.28;;;31.24;37.84
9695;BME280;4690;52.422;13.486;2023-08-24T12:44:32;101253.38;;;31.29;35.58
9695;BME280;4690;52.422;13.486;2023-08-24T12:47:02;101251.16;;;31.10;36.04
9695;BME280;4690;52.422;13.486;2023-08-24T12:49:28;101244.41;;;31.02;36.89
9695;BME280;4690;52.422;13.486;2023-08-24T12:51:54;101243.22;;;30.79;36.43
9695;BME280;4690;52.422;13.486;2023-08-24T12:54:19;101225.66;;;30.86;36.44
9695;BME280;4690;52.422;13.486;2023-08-24T12:56:45;101235.81;;;30.99;37.16
9695;BME280;4690;52.422;13.486;2023-08-24T12:59:11;101213.28;;;31.02;36.09
9695;BME280;4690;52.422;13.486;2023-08-24T13:01:37;101230.25;;;30.78;36.23
9695;BME280;4690;52.422;13.486;2023-08-24T13:04:04;101223.19;;;30.84;35.66
9695;BME280;4690;52.422;13.486;2023-08-24T13:06:30;101209.50;;;30.98;37.56
9695;BME280;4690;52.422;13.486;2023-08-24T13:08:56;101206.44;;;30.91;37.17
9695;BME280;4690;52.422;13.486;2023-08-24T13:11:22;101203.16;;;30.89;36.32
9695;BME280;4690;52.422;13.486;2023-08-24T13:13:49;101199.38;;;30.97;37.28
9695;BME280;4690;52.422;13.486;2023-08-24T13:16:14;101188.75;;;31.07;37.32
9695;BME280;4690;52.422;13.486;2023-08-24T13:18:42;101183.06;;;31.19;37.69
9695;BME280;4690;52.422;13.486;2023-08-24T13:21:07;101183.97;;;31.35;34.98
9695;BME280;4690;52.422;13.486;2023-08-24T13:23:33;101198.41;;;31.42;37.70
9695;BME280;4690;52.422;13.486;2023-08-24T13:25:59;101187.25;;;31.49;36.03
9695;BME280;4690;52.422;13.486;2023-08-24T13:28:26;101179.81;;;31.45;34.88